Bozeman, Montana
Current Conditions -  °F | °C
As of 6:56 AM on Friday 28 Nov 2014 (Local Time) from KBZN Reporting Station
Broken Clouds Broken Clouds  
Wind Chill: 48°   Ceiling: 8500
Heat Index: 48°   Visibility: 10mi
Dew Point: 26°   Wind: 0mph
Humidity: 42%   Direction: NA
Pressure: 29.71"   Gusts: NA
Location:  45.68°N, 111.03°W
Report Text: KBZN 281356Z 00000KT 10SM BKN085 09/M03 A2971 RMK AO2 SLP050 T00891033 $
Loading
Personal Weather Stations






























Interactive Weather Map New forecast layout! Learn more

10-Day Weather Forecast

Advertisements
Track Severe Weather on mobile